Hauptseite
METAR-TAF:

METAR-TAF

Flughäfen :

Farnborough Airfield

Farnborough, England

Breite: 51-17N, Länge: 000-46W, Höhe: 65 m

Beobachtung

Neuester Wetterbericht von vor 10 Stunden und 8 Minuten, um 19:50 UTC
Wind 7 kt aus Nordost
Temperatur 6°C
Luftfeuchtigkeit 81%
Luftdruck 1025 hPa
Sichtweite 10 km oder mehr
keine Wolken unter 1500 m und keine Kumulonimbus oder Gewitterwolken

METAR: EGLF 181950Z 04007KT CAVOK 06/03 Q1025

Zeit: 05:58 (05:58 UTC)

Prognose

Neuester Wetterbericht von vor 16 Stunden und 1 Minuten, um 13:57 UTC
Gültige Prognose vom 18 um 15 UTC bis 18 um 20 UTC
Wind 13 kt aus Nordost
Sichtweite 10 km oder mehr
keine Wolken unter 1500 m und keine Kumulonimbus oder Gewitterwolken
Wahrscheinlichkeit 30%
vom 18 um 16 UTC bis 18 um 20 UTC
Sichtweite: 8000 m

TAF: EGLF 181357Z 1815/1820 05013KT CAVOK PROB30 1816/1820 8000

Wetterbeobachtungen und Prognosen von mehr als 4000 Flughäfen (METAR und TAF Bericht).

Die verfügbaren Stationen werden durch gelbe und rote Markierungen auf der Karte dargestellt.

Führen Sie die Maus auf sie, um den Namen der Station zu sehen.

Darauf klicken, um die Beobachtung von Wetterbeobachtungen und Prognosen zu sehen.

Um die Karte zu ändern : klicken Sie auf den grünen Tasten mit einem schwarzen Kreuz Zum Vergrößern, auf den grünen Button mit einem Gedankenstrich zu verkleinern, oder auf die grünen Pfeile für benachbarte Karten.


METAR-TAF: